createdAt,value
2018-11-23T00:01:24.398Z,34.90
2018-11-23T00:03:57.393Z,34.07
2018-11-23T00:06:34.144Z,33.33
2018-11-23T00:09:05.772Z,31.80
2018-11-23T00:11:37.584Z,33.77
2018-11-23T00:14:07.767Z,32.10
2018-11-23T00:16:38.849Z,31.37
2018-11-23T00:19:10.554Z,30.35
2018-11-23T00:21:41.142Z,32.83
2018-11-23T00:24:13.554Z,29.47
2018-11-23T00:26:46.375Z,30.13
2018-11-23T00:29:16.430Z,33.00
2018-11-23T00:31:50.296Z,33.30
2018-11-23T00:34:20.762Z,31.50
2018-11-23T00:36:51.560Z,31.20
2018-11-23T00:39:22.494Z,31.37
2018-11-23T00:41:55.025Z,31.23
2018-11-23T00:44:25.532Z,30.13
2018-11-23T00:47:04.381Z,30.63
2018-11-23T00:49:40.353Z,30.77
2018-11-23T00:52:10.431Z,31.47
2018-11-23T00:54:41.387Z,31.50
2018-11-23T00:57:12.118Z,31.87
2018-11-23T00:59:44.681Z,30.67
2018-11-23T01:02:15.559Z,29.60
2018-11-23T01:04:48.522Z,30.73
2018-11-23T01:07:21.591Z,30.10
2018-11-23T01:09:55.134Z,29.47
2018-11-23T01:12:28.354Z,27.97
2018-11-23T01:14:58.659Z,30.47
2018-11-23T01:17:28.719Z,31.43
2018-11-23T01:19:59.631Z,28.30
2018-11-23T01:22:29.658Z,26.90
2018-11-23T01:25:06.975Z,27.77
2018-11-23T01:27:40.644Z,28.20
2018-11-23T01:30:17.974Z,27.40
2018-11-23T01:32:49.859Z,28.17
2018-11-23T01:35:22.690Z,27.80
2018-11-23T01:37:55.851Z,27.60
2018-11-23T01:40:30.342Z,29.67
2018-11-23T01:43:02.750Z,28.67
2018-11-23T01:45:32.774Z,29.30
2018-11-23T01:48:05.968Z,31.47
2018-11-23T01:50:36.664Z,31.97
2018-11-23T01:53:06.935Z,29.63
2018-11-23T01:55:38.470Z,28.33
2018-11-23T01:58:10.885Z,31.03
2018-11-23T02:00:46.993Z,31.60
2018-11-23T02:03:17.479Z,31.17
2018-11-23T02:05:48.482Z,30.77
2018-11-23T02:08:19.363Z,30.47
2018-11-23T02:10:51.877Z,30.00
2018-11-23T02:13:25.256Z,29.50
2018-11-23T02:15:55.935Z,29.47
2018-11-23T02:18:26.007Z,29.40
2018-11-23T02:20:56.012Z,27.93
2018-11-23T02:23:26.184Z,27.20
2018-11-23T02:25:56.970Z,27.57
2018-11-23T02:28:30.030Z,27.00
2018-11-23T02:31:06.383Z,27.50
2018-11-23T02:33:38.971Z,26.40
2018-11-23T02:36:11.520Z,27.60
2018-11-23T02:38:43.931Z,27.40
2018-11-23T02:41:14.310Z,27.60
2018-11-23T02:43:45.000Z,28.23
2018-11-23T02:46:15.076Z,25.90
2018-11-23T02:48:46.334Z,27.27
2018-11-23T02:51:17.034Z,28.13
2018-11-23T02:53:47.811Z,24.43
2018-11-23T02:56:20.119Z,24.80
2018-11-23T02:58:53.042Z,25.77
2018-11-23T03:01:23.122Z,27.50
2018-11-23T03:03:55.064Z,25.73
2018-11-23T03:06:26.936Z,27.10
2018-11-23T03:08:58.051Z,27.23
2018-11-23T03:11:28.071Z,25.72
2018-11-23T03:13:58.776Z,25.77
2018-11-23T03:16:29.074Z,24.20
2018-11-23T03:18:59.102Z,23.80
2018-11-23T03:21:29.835Z,25.13
2018-11-23T03:23:59.958Z,25.50
2018-11-23T03:26:30.144Z,24.90
2018-11-23T03:29:00.195Z,25.50
2018-11-23T03:31:30.955Z,23.70
2018-11-23T03:34:01.356Z,24.17
2018-11-23T03:36:31.647Z,24.30
2018-11-23T03:39:02.017Z,23.60
2018-11-23T03:41:32.204Z,23.00
2018-11-23T03:44:02.605Z,23.10
2018-11-23T03:46:33.355Z,23.23
2018-11-23T03:49:03.536Z,21.70
2018-11-23T03:51:33.552Z,22.90
2018-11-23T03:54:03.882Z,23.55
2018-11-23T03:56:34.413Z,22.13
2018-11-23T03:59:04.534Z,23.40
2018-11-23T04:01:34.834Z,19.83
2018-11-23T04:04:05.823Z,20.07
2018-11-23T04:06:38.433Z,24.13
2018-11-23T04:09:09.622Z,21.90
2018-11-23T04:11:42.367Z,20.60
2018-11-23T04:14:14.334Z,20.27
2018-11-23T04:16:45.270Z,22.03
2018-11-23T04:19:17.416Z,20.70
2018-11-23T04:21:49.376Z,20.37
2018-11-23T04:24:20.349Z,21.63
2018-11-23T04:26:50.343Z,21.07
2018-11-23T04:29:23.171Z,19.90
2018-11-23T04:31:53.615Z,21.00
2018-11-23T04:34:24.256Z,20.20
2018-11-23T04:36:54.520Z,19.90
2018-11-23T04:39:24.537Z,20.10
2018-11-23T04:41:55.373Z,20.27
2018-11-23T04:44:25.556Z,19.20
2018-11-23T04:46:56.097Z,18.70
2018-11-23T04:49:26.373Z,18.73
2018-11-23T04:51:56.855Z,19.37
2018-11-23T04:54:27.154Z,20.77
2018-11-23T04:57:00.531Z,17.70
2018-11-23T04:59:30.688Z,16.97
2018-11-23T05:02:01.629Z,16.60
2018-11-23T05:04:34.674Z,16.63
2018-11-23T05:07:04.724Z,17.03
2018-11-23T05:09:35.722Z,19.07
2018-11-23T05:12:07.733Z,18.17
2018-11-23T05:14:38.897Z,20.53
2018-11-23T05:17:10.828Z,20.73
2018-11-23T05:19:42.766Z,18.20
2018-11-23T05:22:14.773Z,19.50
2018-11-23T05:24:52.719Z,19.80
2018-11-23T05:27:23.780Z,22.22
2018-11-23T05:29:53.857Z,21.00
2018-11-23T05:32:27.754Z,19.33
2018-11-23T05:35:00.558Z,19.60
2018-11-23T05:37:31.978Z,18.30
2018-11-23T05:40:02.082Z,19.57
2018-11-23T05:42:37.913Z,17.77
2018-11-23T05:45:12.502Z,18.27
2018-11-23T05:47:44.901Z,18.67
2018-11-23T05:50:18.435Z,18.60
2018-11-23T05:52:50.919Z,19.10
2018-11-23T05:55:21.782Z,17.20
2018-11-23T05:57:52.555Z,17.23
2018-11-23T06:00:28.205Z,19.20
2018-11-23T06:02:58.890Z,16.43
2018-11-23T06:05:29.032Z,17.75
2018-11-23T06:08:07.719Z,18.53
2018-11-23T06:10:41.845Z,18.80
2018-11-23T06:13:14.930Z,18.17
2018-11-23T06:15:48.123Z,17.63
2018-11-23T06:18:20.987Z,17.70
2018-11-23T06:20:52.035Z,15.43
2018-11-23T06:23:27.886Z,15.48
2018-11-23T06:26:07.272Z,15.30
2018-11-23T06:28:37.973Z,14.20
2018-11-23T06:31:08.401Z,15.20
2018-11-23T06:33:43.734Z,14.80
2018-11-23T06:36:19.653Z,14.27
2018-11-23T06:38:51.117Z,14.90
2018-11-23T06:41:27.364Z,30.33
2018-11-23T06:43:57.923Z,18.93
2018-11-23T06:46:28.003Z,16.33
2018-11-23T06:48:58.573Z,14.25
2018-11-23T06:51:28.768Z,14.00
2018-11-23T06:53:59.098Z,14.57
2018-11-23T06:56:29.423Z,13.60
2018-11-23T06:58:59.888Z,15.68
2018-11-23T07:01:30.020Z,17.27
2018-11-23T07:04:00.143Z,15.40
2018-11-23T07:06:30.177Z,15.40
2018-11-23T07:09:01.111Z,14.83
2018-11-23T07:11:34.972Z,14.03
2018-11-23T07:14:07.129Z,14.40
2018-11-23T07:16:38.722Z,13.60
2018-11-23T07:19:09.203Z,14.67
2018-11-23T07:21:46.942Z,15.23
2018-11-23T07:24:18.217Z,15.13
2018-11-23T07:26:48.269Z,14.80
2018-11-23T07:29:19.191Z,13.78
2018-11-23T07:31:49.322Z,17.27
2018-11-23T07:34:19.833Z,18.40
2018-11-23T07:36:50.186Z,19.30
2018-11-23T07:39:31.373Z,15.38
2018-11-23T07:42:16.036Z,14.57
2018-11-23T07:44:48.405Z,15.50
2018-11-23T07:47:20.383Z,14.63
2018-11-23T07:49:52.047Z,14.00
2018-11-23T07:52:22.458Z,14.30
2018-11-23T07:54:53.400Z,14.57
2018-11-23T07:57:23.532Z,14.87
2018-11-23T07:59:56.356Z,14.80
2018-11-23T08:02:27.523Z,14.90
2018-11-23T08:05:09.111Z,17.60
2018-11-23T08:07:39.428Z,15.53
2018-11-23T08:10:13.292Z,17.80
2018-11-23T08:12:46.885Z,18.80
2018-11-23T08:15:20.876Z,14.83
2018-11-23T08:17:53.652Z,15.93
2018-11-23T08:20:30.378Z,15.87
2018-11-23T08:23:00.423Z,18.90
2018-11-23T08:25:30.586Z,14.07
2018-11-23T08:28:01.427Z,13.10
2018-11-23T08:30:31.534Z,12.47
2018-11-23T08:33:05.144Z,13.97
2018-11-23T08:35:35.633Z,12.33
2018-11-23T08:38:05.843Z,12.20
2018-11-23T08:40:38.542Z,13.40
2018-11-23T08:43:09.178Z,11.57
2018-11-23T08:45:39.570Z,13.13
2018-11-23T08:48:11.662Z,11.40
2018-11-23T08:50:42.475Z,11.43
2018-11-23T08:53:14.557Z,12.03
2018-11-23T08:55:46.705Z,12.50
2018-11-23T08:58:17.126Z,13.23
2018-11-23T09:00:47.590Z,13.77
2018-11-23T09:03:17.952Z,12.17
2018-11-23T09:05:48.364Z,12.20
2018-11-23T09:08:18.754Z,13.93
2018-11-23T09:10:49.132Z,14.97
2018-11-23T09:13:19.610Z,15.18
2018-11-23T09:15:49.603Z,12.30
2018-11-23T09:18:19.724Z,12.37
2018-11-23T09:20:50.399Z,12.13
2018-11-23T09:23:20.823Z,12.00
2018-11-23T09:25:51.091Z,11.73
2018-11-23T09:28:21.502Z,10.90
2018-11-23T09:30:51.682Z,12.37
2018-11-23T09:33:22.132Z,11.63
2018-11-23T09:35:52.513Z,12.33
2018-11-23T09:38:22.914Z,13.90
2018-11-23T09:40:53.928Z,12.10
2018-11-23T09:43:23.982Z,12.35
2018-11-23T09:45:54.044Z,12.13
2018-11-23T09:48:24.476Z,13.03
2018-11-23T09:50:54.885Z,12.57
2018-11-23T09:53:25.607Z,11.83
2018-11-23T09:55:56.345Z,12.53
2018-11-23T09:58:28.942Z,13.57
2018-11-23T10:01:02.002Z,11.90
2018-11-23T10:03:34.997Z,11.37
2018-11-23T10:06:06.008Z,11.63
2018-11-23T10:08:39.007Z,12.13
2018-11-23T10:11:10.191Z,12.27
2018-11-23T10:13:40.359Z,12.70
2018-11-23T10:16:11.950Z,12.50
2018-11-23T10:18:42.091Z,12.57
2018-11-23T10:21:14.601Z,12.30
2018-11-23T10:23:45.041Z,11.47
2018-11-23T10:26:15.154Z,14.53
2018-11-23T10:28:45.952Z,13.40
2018-11-23T10:31:16.344Z,12.27
2018-11-23T10:33:46.957Z,12.40
2018-11-23T10:36:17.366Z,17.70
2018-11-23T10:38:47.746Z,14.77
2018-11-23T10:41:18.104Z,13.37
2018-11-23T10:43:48.701Z,13.50
2018-11-23T10:46:22.549Z,14.77
2018-11-23T10:48:55.065Z,14.37
2018-11-23T10:51:25.139Z,14.43
2018-11-23T10:53:59.008Z,15.40
2018-11-23T10:56:29.155Z,15.53
2018-11-23T10:58:59.174Z,15.23
2018-11-23T11:01:35.570Z,17.03
2018-11-23T11:04:12.034Z,17.07
2018-11-23T11:06:55.440Z,17.30
2018-11-23T11:09:28.256Z,16.32
2018-11-23T11:11:58.448Z,14.40
2018-11-23T11:14:28.603Z,14.90
2018-11-23T11:16:59.479Z,13.60
2018-11-23T11:19:29.681Z,15.37
2018-11-23T11:22:02.344Z,13.88
2018-11-23T11:24:33.387Z,15.33
2018-11-23T11:27:09.419Z,15.87
2018-11-23T11:29:39.561Z,14.30
2018-11-23T11:32:13.262Z,15.03
2018-11-23T11:34:43.475Z,15.57
2018-11-23T11:37:19.422Z,16.37
2018-11-23T11:39:54.421Z,17.47
2018-11-23T11:42:26.317Z,17.40
2018-11-23T11:44:56.315Z,19.37
2018-11-23T11:47:27.131Z,17.87
2018-11-23T11:49:59.132Z,18.90
2018-11-23T11:52:28.099Z,19.73
2018-11-23T11:54:58.103Z,18.93
2018-11-23T11:57:28.345Z,18.70
2018-11-23T11:59:58.492Z,19.40
2018-11-23T12:02:29.111Z,21.63
2018-11-23T12:04:59.325Z,20.67
2018-11-23T12:07:29.663Z,21.20
2018-11-23T12:10:00.176Z,20.67
2018-11-23T12:12:30.629Z,22.13
2018-11-23T12:15:03.286Z,20.97
2018-11-23T12:17:34.429Z,20.57
2018-11-23T12:20:06.207Z,20.97
2018-11-23T12:22:40.546Z,20.50
2018-11-23T12:25:11.775Z,20.80
2018-11-23T12:27:44.533Z,20.77
2018-11-23T12:30:16.545Z,20.43
2018-11-23T12:32:47.884Z,22.80
2018-11-23T12:35:19.728Z,20.03
2018-11-23T12:37:55.468Z,20.50
2018-11-23T12:40:26.102Z,21.80
2018-11-23T12:42:59.289Z,20.27
2018-11-23T12:45:29.621Z,21.60
2018-11-23T12:47:59.619Z,23.30
2018-11-23T12:50:30.677Z,21.00
2018-11-23T12:53:06.421Z,23.47
2018-11-23T12:55:33.826Z,31.17
2018-11-23T12:58:07.647Z,30.27
2018-11-23T13:00:37.716Z,32.90
2018-11-23T13:03:08.731Z,30.50
2018-11-23T13:05:38.795Z,29.37
2018-11-23T13:08:08.847Z,34.83
2018-11-23T13:10:45.683Z,33.13
2018-11-23T13:13:16.744Z,28.12
2018-11-23T13:15:46.823Z,26.63
2018-11-23T13:18:17.085Z,23.57
2018-11-23T13:20:47.788Z,24.30
2018-11-23T13:23:20.743Z,26.00
2018-11-23T13:25:53.939Z,30.50
2018-11-23T13:28:26.856Z,27.50
2018-11-23T13:31:03.694Z,24.40
2018-11-23T13:33:33.716Z,23.63
2018-11-23T13:36:03.842Z,25.40
2018-11-23T13:38:34.901Z,25.93
2018-11-23T13:41:08.094Z,24.67
2018-11-23T13:43:40.781Z,27.03
2018-11-23T13:46:11.798Z,27.17
2018-11-23T13:48:42.450Z,27.60
2018-11-23T13:51:14.906Z,24.53
2018-11-23T13:53:44.932Z,26.68
2018-11-23T13:56:15.923Z,25.07
2018-11-23T13:58:45.942Z,24.13
2018-11-23T14:01:16.626Z,27.50
2018-11-23T14:03:46.940Z,28.27
2018-11-23T14:06:17.301Z,25.80
2018-11-23T14:08:47.721Z,26.57
2018-11-23T14:11:17.889Z,26.97
2018-11-23T14:13:47.950Z,26.90
2018-11-23T14:16:18.175Z,26.80
2018-11-23T14:18:55.522Z,27.40
2018-11-23T14:21:30.873Z,25.93
2018-11-23T14:24:03.157Z,26.52
2018-11-23T14:26:34.215Z,25.80
2018-11-23T14:29:05.598Z,24.30
2018-11-23T14:31:35.759Z,27.60
2018-11-23T14:34:06.173Z,26.73
2018-11-23T14:36:36.476Z,26.87
2018-11-23T14:39:08.923Z,27.48
2018-11-23T14:41:40.067Z,28.03
2018-11-23T14:44:12.238Z,27.80
2018-11-23T14:46:47.193Z,30.20
2018-11-23T14:49:18.257Z,27.27
2018-11-23T14:51:53.865Z,28.07
2018-11-23T14:54:24.175Z,29.20
2018-11-23T14:56:54.570Z,27.97
2018-11-23T14:59:28.020Z,27.90
2018-11-23T15:01:58.358Z,29.80
2018-11-23T15:04:37.156Z,28.60
2018-11-23T15:07:08.707Z,30.37
2018-11-23T15:09:41.013Z,28.90
2018-11-23T15:12:11.882Z,30.60
2018-11-23T15:14:42.251Z,30.80
2018-11-23T15:17:13.289Z,30.93
2018-11-23T15:19:43.296Z,31.57
2018-11-23T15:22:13.732Z,30.00
2018-11-23T15:24:44.106Z,33.02
2018-11-23T15:27:14.660Z,31.20
2018-11-23T15:29:45.012Z,28.70
2018-11-23T15:32:15.390Z,28.17
2018-11-23T15:34:46.043Z,30.80
2018-11-23T15:37:16.652Z,30.07
2018-11-23T15:39:47.250Z,30.17
2018-11-23T15:42:17.264Z,29.10
2018-11-23T15:44:47.534Z,31.63
2018-11-23T15:47:18.132Z,32.08
2018-11-23T15:49:48.783Z,33.87
2018-11-23T15:52:19.487Z,32.10
2018-11-23T15:54:52.488Z,31.93
2018-11-23T15:57:22.586Z,31.93
2018-11-23T16:00:09.380Z,33.20
2018-11-23T16:02:40.661Z,33.93
2018-11-23T16:05:12.939Z,34.63
2018-11-23T16:07:51.064Z,34.13
2018-11-23T16:10:25.375Z,34.60
2018-11-23T16:12:58.947Z,34.93
2018-11-23T16:15:34.719Z,34.98
2018-11-23T16:18:06.999Z,31.93
2018-11-23T16:20:39.678Z,32.73
2018-11-23T16:23:26.119Z,32.67
2018-11-23T16:25:57.354Z,32.40
2018-11-23T16:28:29.782Z,34.10
2018-11-23T16:30:59.845Z,36.20
2018-11-23T16:33:33.690Z,33.13
2018-11-23T16:36:03.771Z,33.70
2018-11-23T16:38:34.111Z,34.43
2018-11-23T16:41:05.406Z,36.87
2018-11-23T16:43:37.782Z,35.67
2018-11-23T16:46:08.877Z,34.23
2018-11-23T16:48:48.365Z,37.70
2018-11-23T16:51:20.913Z,37.50
2018-11-23T16:54:01.792Z,37.17
2018-11-23T16:56:33.863Z,35.47
2018-11-23T16:59:04.239Z,35.90
2018-11-23T17:01:34.986Z,37.67
2018-11-23T17:04:06.671Z,34.63
2018-11-23T17:06:38.879Z,35.97
2018-11-23T17:09:09.861Z,33.50
2018-11-23T17:11:42.001Z,34.93
2018-11-23T17:14:17.792Z,35.83
2018-11-23T17:16:48.984Z,34.60
2018-11-23T17:19:22.774Z,33.70
2018-11-23T17:21:52.931Z,33.10
2018-11-23T17:24:33.280Z,35.83
2018-11-23T17:27:12.190Z,32.42
2018-11-23T17:29:47.608Z,34.23
2018-11-23T17:32:17.998Z,32.30
2018-11-23T17:34:48.674Z,33.50
2018-11-23T17:37:18.903Z,32.60
2018-11-23T17:39:52.798Z,32.27
2018-11-23T17:42:22.911Z,31.83
2018-11-23T17:44:55.914Z,33.23
2018-11-23T17:47:26.915Z,31.12
2018-11-23T17:49:57.129Z,29.97
2018-11-23T17:52:28.734Z,31.20
2018-11-23T17:55:01.055Z,33.10
2018-11-23T17:57:34.064Z,30.87
2018-11-23T18:00:10.670Z,31.13
2018-11-23T18:02:41.285Z,32.03
2018-11-23T18:05:13.135Z,30.17
2018-11-23T18:07:45.240Z,30.72
2018-11-23T18:10:19.046Z,31.00
2018-11-23T18:12:49.430Z,31.87
2018-11-23T18:15:29.040Z,31.23
2018-11-23T18:18:02.273Z,32.00
2018-11-23T18:20:35.581Z,33.17
2018-11-23T18:23:08.362Z,31.80
2018-11-23T18:25:41.553Z,29.07
2018-11-23T18:28:13.755Z,35.27
2018-11-23T18:30:45.291Z,32.97
2018-11-23T18:33:18.511Z,31.27
2018-11-23T18:35:49.254Z,28.43
2018-11-23T18:38:22.283Z,30.50
2018-11-23T18:40:55.404Z,28.35
2018-11-23T18:43:26.303Z,29.75
2018-11-23T18:46:02.065Z,30.07
2018-11-23T18:48:33.284Z,28.10
2018-11-23T18:51:03.385Z,27.93
2018-11-23T18:53:36.236Z,28.80
2018-11-23T18:56:06.385Z,27.70
2018-11-23T18:58:37.336Z,27.57
2018-11-23T19:01:08.904Z,27.10
2018-11-23T19:03:42.505Z,26.70
2018-11-23T19:06:12.402Z,26.17
2018-11-23T19:08:44.492Z,26.37
2018-11-23T19:11:15.437Z,25.73
2018-11-23T19:13:48.372Z,28.40
2018-11-23T19:16:19.012Z,28.30
2018-11-23T19:18:49.273Z,26.63
2018-11-23T19:21:20.167Z,26.43
2018-11-23T19:23:50.289Z,26.30
2018-11-23T19:26:20.408Z,27.40
2018-11-23T19:28:51.362Z,26.50
2018-11-23T19:31:21.654Z,27.00
2018-11-23T19:33:51.781Z,26.20
2018-11-23T19:36:22.181Z,26.20
2018-11-23T19:38:53.296Z,26.20
2018-11-23T19:41:25.653Z,29.77
2018-11-23T19:43:55.687Z,26.10
2018-11-23T19:46:26.388Z,26.30
2018-11-23T19:48:56.537Z,26.53
2018-11-23T19:51:29.482Z,28.77
2018-11-23T19:54:00.447Z,26.07
2018-11-23T19:56:30.632Z,26.83
2018-11-23T19:59:01.649Z,25.97
2018-11-23T20:01:31.874Z,27.70
2018-11-23T20:04:02.589Z,27.13
2018-11-23T20:06:32.667Z,26.77
2018-11-23T20:09:09.535Z,25.17
2018-11-23T20:11:39.654Z,26.20
2018-11-23T20:14:09.694Z,27.40
2018-11-23T20:16:43.894Z,24.80
2018-11-23T20:19:14.263Z,26.10
2018-11-23T20:21:44.524Z,24.80
2018-11-23T20:24:14.608Z,27.10
2018-11-23T20:26:44.993Z,24.03
2018-11-23T20:29:15.283Z,25.03
2018-11-23T20:31:46.325Z,25.27
2018-11-23T20:34:18.643Z,27.60
2018-11-23T20:36:49.344Z,25.90
2018-11-23T20:39:22.785Z,24.93
2018-11-23T20:41:52.899Z,26.43
2018-11-23T20:44:31.559Z,24.83
2018-11-23T20:47:02.275Z,26.60
2018-11-23T20:49:32.679Z,25.97
2018-11-23T20:52:02.959Z,25.93
2018-11-23T20:54:33.626Z,26.83
2018-11-23T20:57:03.714Z,25.97
2018-11-23T20:59:38.742Z,25.37
2018-11-23T21:02:04.585Z,24.93
2018-11-23T21:04:34.607Z,25.87
2018-11-23T21:07:04.974Z,26.82
2018-11-23T21:09:36.938Z,27.20
2018-11-23T21:12:18.815Z,23.00
2018-11-23T21:14:53.841Z,25.57
2018-11-23T21:17:24.108Z,23.57
2018-11-23T21:19:57.013Z,23.67
2018-11-23T21:22:28.351Z,23.50
2018-11-23T21:25:00.977Z,21.93
2018-11-23T21:27:34.036Z,24.57
2018-11-23T21:30:13.274Z,21.80
2018-11-23T21:32:44.109Z,23.57
2018-11-23T21:35:21.991Z,21.68
2018-11-23T21:37:54.102Z,22.67
2018-11-23T21:40:24.541Z,21.17
2018-11-23T21:42:54.760Z,21.93
2018-11-23T21:45:25.437Z,21.80
2018-11-23T21:47:55.517Z,22.53
2018-11-23T21:50:25.986Z,23.20
2018-11-23T21:52:56.130Z,23.03
2018-11-23T21:55:26.568Z,25.23
2018-11-23T21:57:57.318Z,25.00
2018-11-23T22:00:32.259Z,27.10
2018-11-23T22:03:36.178Z,27.30
2018-11-23T22:06:07.219Z,27.87
2018-11-23T22:08:42.966Z,24.47
2018-11-23T22:11:13.311Z,23.20
2018-11-23T22:13:44.325Z,21.33
2018-11-23T22:16:14.814Z,34.87
2018-11-23T22:18:45.310Z,26.00
2018-11-23T22:21:15.751Z,22.77
2018-11-23T22:23:45.940Z,23.77
2018-11-23T22:26:16.466Z,22.17
2018-11-23T22:28:46.567Z,23.00
2018-11-23T22:31:17.574Z,22.57
2018-11-23T22:33:47.744Z,23.20
2018-11-23T22:36:18.272Z,22.23
2018-11-23T22:38:48.777Z,22.53
2018-11-23T22:41:19.115Z,22.03
2018-11-23T22:43:49.305Z,20.40
2018-11-23T22:46:20.040Z,21.87
2018-11-23T22:48:50.311Z,25.13
2018-11-23T22:51:20.782Z,25.35
2018-11-23T22:53:51.201Z,20.63
2018-11-23T22:56:21.416Z,20.60
2018-11-23T22:58:55.526Z,21.50
2018-11-23T23:01:25.559Z,19.70
2018-11-23T23:03:58.396Z,19.00
2018-11-23T23:06:35.215Z,20.47
2018-11-23T23:09:08.890Z,20.93
2018-11-23T23:11:38.988Z,20.70
2018-11-23T23:14:09.139Z,19.80
2018-11-23T23:16:39.233Z,21.27
2018-11-23T23:19:09.602Z,20.43
2018-11-23T23:21:39.747Z,20.77
2018-11-23T23:24:11.767Z,22.00
2018-11-23T23:26:40.417Z,20.50
2018-11-23T23:29:10.866Z,21.17
2018-11-23T23:31:41.139Z,21.30
2018-11-23T23:34:11.412Z,20.23
2018-11-23T23:36:41.674Z,22.20
2018-11-23T23:39:12.255Z,21.13
2018-11-23T23:41:42.362Z,21.87
2018-11-23T23:44:12.517Z,22.47
2018-11-23T23:46:42.658Z,21.60
2018-11-23T23:49:13.542Z,22.70
2018-11-23T23:51:43.603Z,22.53
2018-11-23T23:54:14.294Z,21.37
2018-11-23T23:56:45.548Z,24.43
2018-11-23T23:59:17.628Z,21.30
